PWSweather.com
Personal Weather Stations
Station Observations
KNYSYRAC2
Fairmount Hills, Fairmount, NY 13219

Fairmount HillsFairmount, NY 13219

Lat: 43.03602, Lon: -76.247151

Elevation: 663

Station Type: Ambient Weather WS-2080

http://weather.cerchia.com

High Low Average
Temperature 41.4°F5.2°C 41.3°F5.2°C 41.3°F5.2°C
Dew Point 22.2°F-5.4°C 22.1°F-5.5°C 22.2°F-5.4°C
Winds 4.0 mph 6.4 kmh 3.3 mph 5.3 kmh 4.0 mph ESE6.4 kmh ESE
Wind Gusts 8.3 mph13.4 kmh 4.5 mph7.2 kmh 6.0 mph9.7 kmh
Humidity 46% 46% 46%
Pressure 30.46 in1031.5 mb 30.45 in1031.2 mb -
Precipitation 0.00 in0.0 mm - -
Hour Temp Dew Point Humidity Winds Wind Gusts Pressure Precip Precip Rate Daily Precip Total
12:00 AM 42.0°F5.6°C 21.1°F-6.1°C 43% 2.8 mph SE4.5 kmh SE 5.4 mph8.7 kmh 30.46 in1031.5 mb 0.00 in0.0 mm 0.00 in/hr0.0 mm/hr 0.00 in0.0 mm
12:15 AM 41.8°F5.4°C 21.0°F-6.1°C 43% 0.9 mph ENE1.4 kmh ENE 3.8 mph6.1 kmh 30.46 in1031.5 mb 0.00 in0.0 mm 0.00 in/hr0.0 mm/hr 0.00 in0.0 mm
12:30 AM 41.6°F5.3°C 21.9°F-5.6°C 45% 2.0 mph E3.2 kmh E 3.1 mph5.0 kmh 30.46 in1031.5 mb 0.00 in0.0 mm 0.00 in/hr0.0 mm/hr 0.00 in0.0 mm
12:45 AM 41.3°F5.2°C 22.1°F-5.5°C 46% 2.7 mph SE4.3 kmh SE 6.0 mph9.7 kmh 30.45 in1031.2 mb 0.00 in0.0 mm 0.00 in/hr0.0 mm/hr 0.00 in0.0 mm
01:00 AM 41.3°F5.2°C 22.1°F-5.5°C 46% 4.0 mph ESE6.4 kmh ESE 8.3 mph13.4 kmh 30.46 in1031.5 mb 0.00 in0.0 mm 0.00 in/hr0.0 mm/hr 0.00 in0.0 mm
01:15 AM 41.4°F5.2°C 22.2°F-5.4°C 46% 3.3 mph ESE5.3 kmh ESE 4.5 mph7.2 kmh 30.45 in1031.2 mb 0.00 in0.0 mm 0.00 in/hr0.0 mm/hr 0.00 in0.0 mm
01:30 AM 41.3°F5.2°C 23.1°F-4.9°C 48% 4.0 mph NE6.4 kmh NE 6.9 mph11.1 kmh 30.46 in1031.5 mb 0.00 in0.0 mm 0.00 in/hr0.0 mm/hr 0.00 in0.0 mm
01:45 AM 41.1°F5.1°C 23.4°F-4.8°C 49% 2.8 mph ESE4.5 kmh ESE 4.5 mph7.2 kmh 30.46 in1031.5 mb 0.00 in0.0 mm 0.00 in/hr0.0 mm/hr 0.00 in0.0 mm
02:00 AM 40.7°F4.8°C 23.5°F-4.7°C 50% 4.2 mph SSE6.8 kmh SSE 8.3 mph13.4 kmh 30.47 in1031.8 mb 0.00 in0.0 mm 0.00 in/hr0.0 mm/hr 0.00 in0.0 mm
02:15 AM 40.9°F4.9°C 24.2°F-4.3°C 51% 3.2 mph SE5.1 kmh SE 7.6 mph12.2 kmh 30.46 in1031.5 mb 0.00 in0.0 mm 0.00 in/hr0.0 mm/hr 0.00 in0.0 mm
02:30 AM 40.4°F4.7°C 24.1°F-4.4°C 52% 3.5 mph NE5.6 kmh NE 5.4 mph8.7 kmh 30.45 in1031.2 mb 0.00 in0.0 mm 0.00 in/hr0.0 mm/hr 0.00 in0.0 mm
02:45 AM 40.2°F4.6°C 24.4°F-4.2°C 53% 3.5 mph S5.6 kmh S 5.4 mph8.7 kmh 30.44 in1030.8 mb 0.00 in0.0 mm 0.00 in/hr0.0 mm/hr 0.00 in0.0 mm
03:00 AM 39.6°F4.2°C 24.8°F-4.0°C 55% 2.9 mph N4.7 kmh N 4.5 mph7.2 kmh 30.43 in1030.5 mb 0.00 in0.0 mm 0.00 in/hr0.0 mm/hr 0.00 in0.0 mm
03:15 AM 39.3°F4.1°C 24.9°F-3.9°C 56% 2.7 mph NNE4.3 kmh NNE 3.8 mph6.1 kmh 30.42 in1030.1 mb 0.00 in0.0 mm 0.00 in/hr0.0 mm/hr 0.00 in0.0 mm
03:30 AM 39.3°F4.1°C 24.9°F-3.9°C 56% 3.1 mph NE5.0 kmh NE 7.6 mph12.2 kmh 30.40 in1029.5 mb 0.00 in0.0 mm 0.00 in/hr0.0 mm/hr 0.00 in0.0 mm
03:45 AM 39.1°F3.9°C 25.2°F-3.8°C 57% 5.2 mph ESE8.4 kmh ESE 7.6 mph12.2 kmh 30.40 in1029.5 mb 0.00 in0.0 mm 0.00 in/hr0.0 mm/hr 0.00 in0.0 mm
04:00 AM 39.1°F3.9°C 25.2°F-3.8°C 57% 3.3 mph E5.3 kmh E 6.9 mph11.1 kmh 30.39 in1029.1 mb 0.00 in0.0 mm 0.00 in/hr0.0 mm/hr 0.00 in0.0 mm
04:15 AM 38.9°F3.8°C 25.0°F-3.9°C 57% 3.6 mph NNE5.8 kmh NNE 5.4 mph8.7 kmh 30.39 in1029.1 mb 0.00 in0.0 mm 0.00 in/hr0.0 mm/hr 0.00 in0.0 mm
04:30 AM 38.6°F3.7°C 25.1°F-3.8°C 58% 3.0 mph NE4.8 kmh NE 8.3 mph13.4 kmh 30.37 in1028.4 mb 0.00 in0.0 mm 0.00 in/hr0.0 mm/hr 0.00 in0.0 mm
04:45 AM 38.4°F3.6°C 25.3°F-3.7°C 59% 3.5 mph NE5.6 kmh NE 5.4 mph8.7 kmh 30.36 in1028.1 mb 0.00 in0.0 mm 0.00 in/hr0.0 mm/hr 0.00 in0.0 mm
05:00 AM 37.7°F3.2°C 24.6°F-4.1°C 59% 1.9 mph NE3.1 kmh NE 3.8 mph6.1 kmh 30.38 in1028.8 mb 0.00 in0.0 mm 0.00 in/hr0.0 mm/hr 0.00 in0.0 mm
05:15 AM 36.6°F2.6°C 23.2°F-4.9°C 58% 1.6 mph ENE2.6 kmh ENE 4.5 mph7.2 kmh 30.39 in1029.1 mb 0.00 in0.0 mm 0.00 in/hr0.0 mm/hr 0.00 in0.0 mm
05:30 AM 36.4°F2.4°C 22.6°F-5.2°C 57% 2.0 mph E3.2 kmh E 3.1 mph5.0 kmh 30.38 in1028.8 mb 0.00 in0.0 mm 0.00 in/hr0.0 mm/hr 0.00 in0.0 mm
05:45 AM 36.0°F2.2°C 20.1°F-6.6°C 52% 1.3 mph NNE2.1 kmh NNE 3.1 mph5.0 kmh 30.39 in1029.1 mb 0.00 in0.0 mm 0.00 in/hr0.0 mm/hr 0.00 in0.0 mm
06:00 AM 36.2°F2.3°C 20.8°F-6.2°C 53% 1.8 mph NE2.9 kmh NE 3.8 mph6.1 kmh 30.38 in1028.8 mb 0.00 in0.0 mm 0.00 in/hr0.0 mm/hr 0.00 in0.0 mm
06:15 AM 36.0°F2.2°C 21.0°F-6.1°C 54% 2.3 mph ENE3.7 kmh ENE 4.5 mph7.2 kmh 30.39 in1029.1 mb 0.00 in0.0 mm 0.00 in/hr0.0 mm/hr 0.00 in0.0 mm
06:30 AM 35.1°F1.7°C 20.6°F-6.3°C 55% 1.8 mph N2.9 kmh N 2.2 mph3.5 kmh 30.39 in1029.1 mb 0.00 in0.0 mm 0.00 in/hr0.0 mm/hr 0.00 in0.0 mm
06:45 AM 35.0°F1.7°C 20.9°F-6.2°C 56% 0.5 mph N0.8 kmh N 1.6 mph2.6 kmh 30.39 in1029.1 mb 0.00 in0.0 mm 0.00 in/hr0.0 mm/hr 0.00 in0.0 mm
07:00 AM 35.7°F2.1°C 22.4°F-5.3°C 58% 2.4 mph E3.9 kmh E 3.8 mph6.1 kmh 30.39 in1029.1 mb 0.00 in0.0 mm 0.00 in/hr0.0 mm/hr 0.00 in0.0 mm
07:15 AM 36.6°F2.6°C 24.0°F-4.4°C 60% 1.9 mph E3.1 kmh E 3.8 mph6.1 kmh 30.39 in1029.1 mb 0.00 in0.0 mm 0.00 in/hr0.0 mm/hr 0.00 in0.0 mm
07:30 AM 37.8°F3.2°C 24.8°F-4.0°C 59% 3.1 mph NE5.0 kmh NE 6.0 mph9.7 kmh 30.38 in1028.8 mb 0.00 in0.0 mm 0.00 in/hr0.0 mm/hr 0.00 in0.0 mm
07:45 AM 38.6°F3.7°C 24.7°F-4.1°C 57% 3.6 mph N5.8 kmh N 5.4 mph8.7 kmh 30.38 in1028.8 mb 0.00 in0.0 mm 0.00 in/hr0.0 mm/hr 0.00 in0.0 mm
08:00 AM 39.3°F4.1°C 25.3°F-3.7°C 57% 3.2 mph ESE5.1 kmh ESE 4.5 mph7.2 kmh 30.39 in1029.1 mb 0.00 in0.0 mm 0.00 in/hr0.0 mm/hr 0.00 in0.0 mm
08:15 AM 40.4°F4.7°C 25.1°F-3.8°C 54% 5.4 mph E8.7 kmh E 9.8 mph15.8 kmh 30.40 in1029.5 mb 0.00 in0.0 mm 0.00 in/hr0.0 mm/hr 0.00 in0.0 mm
08:30 AM 41.4°F5.2°C 25.6°F-3.6°C 53% 6.3 mph SE10.1 kmh SE 8.3 mph13.4 kmh 30.39 in1029.1 mb 0.00 in0.0 mm 0.00 in/hr0.0 mm/hr 0.00 in0.0 mm
08:45 AM 42.0°F5.6°C 25.6°F-3.6°C 52% 4.5 mph E7.2 kmh E 6.9 mph11.1 kmh 30.39 in1029.1 mb 0.00 in0.0 mm 0.00 in/hr0.0 mm/hr 0.00 in0.0 mm
09:00 AM 42.9°F6.1°C 26.9°F-2.8°C 53% 3.7 mph ESE6.0 kmh ESE 7.6 mph12.2 kmh 30.38 in1028.8 mb 0.00 in0.0 mm 0.00 in/hr0.0 mm/hr 0.00 in0.0 mm
09:15 AM 44.0°F6.7°C 27.0°F-2.8°C 51% 3.6 mph S5.8 kmh S 6.0 mph9.7 kmh 30.38 in1028.8 mb 0.00 in0.0 mm 0.00 in/hr0.0 mm/hr 0.00 in0.0 mm
09:30 AM 44.3°F6.8°C 26.9°F-2.8°C 50% 4.2 mph SSE6.8 kmh SSE 8.3 mph13.4 kmh 30.37 in1028.4 mb 0.00 in0.0 mm 0.00 in/hr0.0 mm/hr 0.00 in0.0 mm
09:45 AM 45.8°F7.7°C 29.2°F-1.6°C 52% 3.5 mph S5.6 kmh S 4.5 mph7.2 kmh 30.37 in1028.4 mb 0.00 in0.0 mm 0.00 in/hr0.0 mm/hr 0.00 in0.0 mm
10:00 AM 46.1°F7.8°C 28.5°F-1.9°C 50% 4.7 mph SE7.6 kmh SE 7.6 mph12.2 kmh 30.36 in1028.1 mb 0.00 in0.0 mm 0.00 in/hr0.0 mm/hr 0.00 in0.0 mm
10:15 AM 46.3°F7.9°C 28.2°F-2.1°C 49% 3.8 mph SSE6.1 kmh SSE 6.0 mph9.7 kmh 30.36 in1028.1 mb 0.00 in0.0 mm 0.00 in/hr0.0 mm/hr 0.00 in0.0 mm
10:30 AM 46.5°F8.1°C 28.9°F-1.7°C 50% 4.9 mph ESE7.9 kmh ESE 6.9 mph11.1 kmh 30.35 in1027.8 mb 0.00 in0.0 mm 0.00 in/hr0.0 mm/hr 0.00 in0.0 mm
10:45 AM 47.4°F8.6°C 29.2°F-1.6°C 49% 6.7 mph SE10.8 kmh SE 9.2 mph14.8 kmh 30.34 in1027.4 mb 0.00 in0.0 mm 0.00 in/hr0.0 mm/hr 0.00 in0.0 mm
11:00 AM 48.1°F8.9°C 29.9°F-1.2°C 49% 4.7 mph SE7.6 kmh SE 6.9 mph11.1 kmh 30.34 in1027.4 mb 0.00 in0.0 mm 0.00 in/hr0.0 mm/hr 0.00 in0.0 mm
11:15 AM 48.6°F9.2°C 29.8°F-1.2°C 48% 6.7 mph SE10.8 kmh SE 8.3 mph13.4 kmh 30.32 in1026.8 mb 0.00 in0.0 mm 0.00 in/hr0.0 mm/hr 0.00 in0.0 mm
11:30 AM 49.7°F9.8°C 30.3°F-0.9°C 47% 5.1 mph SSE8.2 kmh SSE 6.9 mph11.1 kmh 30.32 in1026.8 mb 0.00 in0.0 mm 0.00 in/hr0.0 mm/hr 0.00 in0.0 mm
11:45 AM 50.4°F10.2°C 29.9°F-1.2°C 45% 6.6 mph E10.6 kmh E 9.2 mph14.8 kmh 30.32 in1026.8 mb 0.00 in0.0 mm 0.00 in/hr0.0 mm/hr 0.00 in0.0 mm
12:00 PM 51.0°F10.6°C 29.8°F-1.2°C 44% 5.3 mph SE8.5 kmh SE 6.9 mph11.1 kmh 30.31 in1026.4 mb 0.00 in0.0 mm 0.00 in/hr0.0 mm/hr 0.00 in0.0 mm
12:15 PM 51.7°F10.9°C 29.9°F-1.2°C 43% 4.4 mph S7.1 kmh S 6.0 mph9.7 kmh 30.31 in1026.4 mb 0.00 in0.0 mm 0.00 in/hr0.0 mm/hr 0.00 in0.0 mm
12:30 PM 52.1°F11.2°C 29.7°F-1.3°C 42% 6.5 mph SSE10.5 kmh SSE 8.3 mph13.4 kmh 30.30 in1026.1 mb 0.00 in0.0 mm 0.00 in/hr0.0 mm/hr 0.00 in0.0 mm
12:45 PM 53.3°F11.8°C 30.8°F-0.7°C 42% 4.2 mph SE6.8 kmh SE 6.0 mph9.7 kmh 30.29 in1025.7 mb 0.00 in0.0 mm 0.00 in/hr0.0 mm/hr 0.00 in0.0 mm
01:00 PM 53.3°F11.8°C 30.2°F-1.0°C 41% 4.6 mph SE7.4 kmh SE 6.9 mph11.1 kmh 30.29 in1025.7 mb 0.00 in0.0 mm 0.00 in/hr0.0 mm/hr 0.00 in0.0 mm
01:15 PM 53.9°F12.2°C 30.7°F-0.7°C 41% 4.2 mph SSE6.8 kmh SSE 5.4 mph8.7 kmh 30.28 in1025.4 mb 0.00 in0.0 mm 0.00 in/hr0.0 mm/hr 0.00 in0.0 mm
01:30 PM 54.4°F12.4°C 31.8°F-0.1°C 42% 4.2 mph SE6.8 kmh SE 5.4 mph8.7 kmh 30.27 in1025.1 mb 0.00 in0.0 mm 0.00 in/hr0.0 mm/hr 0.00 in0.0 mm
01:45 PM 54.4°F12.4°C 31.8°F-0.1°C 42% 4.4 mph ESE7.1 kmh ESE 6.9 mph11.1 kmh 30.28 in1025.4 mb 0.00 in0.0 mm 0.00 in/hr0.0 mm/hr 0.00 in0.0 mm
02:00 PM 54.8°F12.7°C 30.9°F-0.6°C 40% 4.4 mph SE7.1 kmh SE 5.4 mph8.7 kmh 30.27 in1025.1 mb 0.00 in0.0 mm 0.00 in/hr0.0 mm/hr 0.00 in0.0 mm
02:15 PM 56.0°F13.3°C 33.3°F0.7°C 42% 2.8 mph SSW4.5 kmh SSW 5.4 mph8.7 kmh 30.27 in1025.1 mb 0.00 in0.0 mm 0.00 in/hr0.0 mm/hr 0.00 in0.0 mm
02:30 PM 57.8°F14.3°C 31.1°F-0.5°C 36% 4.4 mph E7.1 kmh E 5.4 mph8.7 kmh 30.26 in1024.7 mb 0.00 in0.0 mm 0.00 in/hr0.0 mm/hr 0.00 in0.0 mm
02:45 PM 59.4°F15.2°C 31.1°F-0.5°C 34% 5.7 mph SSW9.2 kmh SSW 6.9 mph11.1 kmh 30.25 in1024.4 mb 0.00 in0.0 mm 0.00 in/hr0.0 mm/hr 0.00 in0.0 mm
03:00 PM 60.9°F16.1°C 30.1°F-1.1°C 31% 4.3 mph S6.9 kmh S 8.3 mph13.4 kmh 30.25 in1024.4 mb 0.00 in0.0 mm 0.00 in/hr0.0 mm/hr 0.00 in0.0 mm
03:15 PM 59.6°F15.3°C 29.0°F-1.7°C 31% 6.0 mph S9.7 kmh S 7.6 mph12.2 kmh 30.24 in1024.0 mb 0.00 in0.0 mm 0.00 in/hr0.0 mm/hr 0.00 in0.0 mm
03:30 PM 61.8°F16.6°C 29.2°F-1.6°C 29% 3.9 mph S6.3 kmh S 6.0 mph9.7 kmh 30.23 in1023.7 mb 0.00 in0.0 mm 0.00 in/hr0.0 mm/hr 0.00 in0.0 mm
03:45 PM 62.0°F16.7°C 27.6°F-2.4°C 27% 5.8 mph SSE9.3 kmh SSE 6.9 mph11.1 kmh 30.22 in1023.4 mb 0.00 in0.0 mm 0.00 in/hr0.0 mm/hr 0.00 in0.0 mm
04:00 PM 62.7°F17.1°C 29.1°F-1.6°C 28% 5.2 mph SSE8.4 kmh SSE 7.6 mph12.2 kmh 30.21 in1023.0 mb 0.00 in0.0 mm 0.00 in/hr0.0 mm/hr 0.00 in0.0 mm
04:15 PM 62.3°F16.8°C 27.9°F-2.3°C 27% 6.6 mph S10.6 kmh S 10.7 mph17.2 kmh 30.20 in1022.7 mb 0.00 in0.0 mm 0.00 in/hr0.0 mm/hr 0.00 in0.0 mm
04:30 PM 62.5°F16.9°C 29.0°F-1.7°C 28% 5.7 mph W9.2 kmh W 6.9 mph11.1 kmh 30.21 in1023.0 mb 0.00 in0.0 mm 0.00 in/hr0.0 mm/hr 0.00 in0.0 mm
04:45 PM 63.0°F17.2°C 28.5°F-1.9°C 27% 6.3 mph S10.1 kmh S 8.3 mph13.4 kmh 30.20 in1022.7 mb 0.00 in0.0 mm 0.00 in/hr0.0 mm/hr 0.00 in0.0 mm
05:00 PM 63.4°F17.4°C 28.9°F-1.7°C 27% 5.5 mph SSE8.9 kmh SSE 8.3 mph13.4 kmh 30.19 in1022.4 mb 0.00 in0.0 mm 0.00 in/hr0.0 mm/hr 0.00 in0.0 mm
05:15 PM 63.2°F17.3°C 28.7°F-1.8°C 27% 4.5 mph WSW7.2 kmh WSW 6.0 mph9.7 kmh 30.19 in1022.4 mb 0.00 in0.0 mm 0.00 in/hr0.0 mm/hr 0.00 in0.0 mm
05:30 PM 63.0°F17.2°C 28.5°F-1.9°C 27% 5.2 mph WSW8.4 kmh WSW 6.0 mph9.7 kmh 30.18 in1022.0 mb 0.00 in0.0 mm 0.00 in/hr0.0 mm/hr 0.00 in0.0 mm
05:45 PM 62.1°F16.7°C 27.8°F-2.3°C 27% 4.8 mph SE7.7 kmh SE 5.4 mph8.7 kmh 30.18 in1022.0 mb 0.00 in0.0 mm 0.00 in/hr0.0 mm/hr 0.00 in0.0 mm
06:00 PM 61.6°F16.4°C 28.2°F-2.1°C 28% 4.7 mph SSE7.6 kmh SSE 6.0 mph9.7 kmh 30.17 in1021.7 mb 0.00 in0.0 mm 0.00 in/hr0.0 mm/hr 0.00 in0.0 mm
06:15 PM 59.8°F15.4°C 27.5°F-2.5°C 29% 4.4 mph S7.1 kmh S 6.0 mph9.7 kmh 30.18 in1022.0 mb 0.00 in0.0 mm 0.00 in/hr0.0 mm/hr 0.00 in0.0 mm
06:30 PM 58.9°F14.9°C 29.9°F-1.2°C 33% 1.0 mph NW1.6 kmh NW 2.2 mph3.5 kmh 30.17 in1021.7 mb 0.00 in0.0 mm 0.00 in/hr0.0 mm/hr 0.00 in0.0 mm
06:45 PM 58.4°F14.7°C 29.4°F-1.4°C 33% 2.6 mph SW4.2 kmh SW 3.8 mph6.1 kmh 30.18 in1022.0 mb 0.00 in0.0 mm 0.00 in/hr0.0 mm/hr 0.00 in0.0 mm
07:00 PM 57.8°F14.3°C 30.4°F-0.9°C 35% 1.3 mph SE2.1 kmh SE 3.1 mph5.0 kmh 30.18 in1022.0 mb 0.00 in0.0 mm 0.00 in/hr0.0 mm/hr 0.00 in0.0 mm
07:15 PM 57.1°F13.9°C 30.4°F-0.9°C 36% 1.5 mph SW2.4 kmh SW 3.1 mph5.0 kmh 30.18 in1022.0 mb 0.00 in0.0 mm 0.00 in/hr0.0 mm/hr 0.00 in0.0 mm
07:30 PM 56.7°F13.7°C 30.8°F-0.7°C 37% 2.2 mph S3.5 kmh S 3.8 mph6.1 kmh 30.18 in1022.0 mb 0.00 in0.0 mm 0.00 in/hr0.0 mm/hr 0.00 in0.0 mm
07:45 PM 56.4°F13.6°C 31.1°F-0.5°C 38% 1.9 mph SSW3.1 kmh SSW 3.1 mph5.0 kmh 30.18 in1022.0 mb 0.00 in0.0 mm 0.00 in/hr0.0 mm/hr 0.00 in0.0 mm
08:00 PM 56.0°F13.3°C 32.1°F0.1°C 40% 2.4 mph SW3.9 kmh SW 3.1 mph5.0 kmh 30.19 in1022.4 mb 0.00 in0.0 mm 0.00 in/hr0.0 mm/hr 0.00 in0.0 mm
08:15 PM 52.4°F11.3°C 30.0°F-1.1°C 42% 9.6 mph NNW15.4 kmh NNW 15.2 mph24.5 kmh 30.21 in1023.0 mb 0.00 in0.0 mm 0.00 in/hr0.0 mm/hr 0.00 in0.0 mm
08:30 PM 50.4°F10.2°C 31.0°F-0.6°C 47% 5.4 mph NNW8.7 kmh NNW 8.3 mph13.4 kmh 30.22 in1023.4 mb 0.00 in0.0 mm 0.00 in/hr0.0 mm/hr 0.00 in0.0 mm
08:45 PM 49.9°F9.9°C 31.5°F-0.3°C 49% 2.2 mph N3.5 kmh N 3.8 mph6.1 kmh 30.22 in1023.4 mb 0.00 in0.0 mm 0.00 in/hr0.0 mm/hr 0.00 in0.0 mm
09:00 PM 49.5°F9.7°C 31.7°F-0.2°C 50% 2.1 mph WNW3.4 kmh WNW 3.8 mph6.1 kmh 30.22 in1023.4 mb 0.00 in0.0 mm 0.00 in/hr0.0 mm/hr 0.00 in0.0 mm
09:15 PM 49.4°F9.7°C 32.0°F0.0°C 51% 1.3 mph N2.1 kmh N 2.2 mph3.5 kmh 30.24 in1024.0 mb 0.00 in0.0 mm 0.00 in/hr0.0 mm/hr 0.00 in0.0 mm
09:30 PM 49.0°F9.4°C 33.1°F0.6°C 54% 1.1 mph NW1.8 kmh NW 4.5 mph7.2 kmh 30.23 in1023.7 mb 0.00 in0.0 mm 0.00 in/hr0.0 mm/hr 0.00 in0.0 mm
09:45 PM 48.1°F8.9°C 34.9°F1.6°C 60% 1.6 mph NNW2.6 kmh NNW 3.1 mph5.0 kmh 30.23 in1023.7 mb 0.00 in0.0 mm 0.00 in/hr0.0 mm/hr 0.00 in0.0 mm
10:00 PM 47.6°F8.7°C 35.2°F1.8°C 62% 0.5 mph W0.8 kmh W 1.6 mph2.6 kmh 30.23 in1023.7 mb 0.00 in0.0 mm 0.00 in/hr0.0 mm/hr 0.00 in0.0 mm
10:15 PM 47.2°F8.4°C 36.0°F2.2°C 65% 0.9 mph NW1.4 kmh NW 1.6 mph2.6 kmh 30.24 in1024.0 mb 0.01 in0.3 mm 0.04 in/hr1.0 mm/hr 0.01 in0.3 mm
10:30 PM 46.5°F8.1°C 36.5°F2.5°C 68% 1.3 mph NW2.1 kmh NW 2.2 mph3.5 kmh 30.23 in1023.7 mb 0.01 in0.3 mm 0.00 in/hr0.0 mm/hr 0.01 in0.3 mm
10:45 PM 46.1°F7.8°C 37.2°F2.9°C 71% 1.3 mph SSE2.1 kmh SSE 3.1 mph5.0 kmh 30.23 in1023.7 mb 0.01 in0.3 mm 0.00 in/hr0.0 mm/hr 0.01 in0.3 mm
11:00 PM 45.6°F7.6°C 37.4°F3.0°C 73% Calm Calm -- 30.23 in1023.7 mb 0.01 in0.3 mm 0.00 in/hr0.0 mm/hr 0.01 in0.3 mm
11:15 PM 45.4°F7.4°C 37.6°F3.1°C 74% 2.2 mph W3.5 kmh W 3.1 mph5.0 kmh 30.24 in1024.0 mb 0.00 in0.0 mm 0.00 in/hr0.0 mm/hr 0.01 in0.3 mm
11:30 PM 45.6°F7.6°C 37.1°F2.8°C 72% 2.6 mph NNW4.2 kmh NNW 3.8 mph6.1 kmh 30.24 in1024.0 mb 0.00 in0.0 mm 0.00 in/hr0.0 mm/hr 0.01 in0.3 mm
11:45 PM 45.6°F7.6°C 37.1°F2.8°C 72% 2.5 mph NW4.0 kmh NW 6.0 mph9.7 kmh 30.24 in1024.0 mb 0.00 in0.0 mm 0.00 in/hr0.0 mm/hr 0.01 in0.3 mm